Time;durP1;ratioP1;P1;durP2;ratioP2;P2;SDS_P1;SDS_P2;PMS_P1;PMS_P2;Temp;Humidity;BMP_temperature;BMP_pressure;BME280_temperature;BME280_humidity;BME280_pressure;Samples;Min_cycle;Max_cycle;Signal;HPM_P1;HPM_P2
2021/06/17 00:01:03;;;;;;;13.37;3.60;;;;;;;20.79;45.68;100156.13;3524572;28;20134;-72
2021/06/17 00:02:45;;;;;;;15.90;4.22;;;;;;;20.75;46.03;100152.28;3525387;28;20035;-71
2021/06/17 00:04:26;;;;;;;15.23;4.22;;;;;;;20.71;46.41;100163.88;3524978;28;20517;-72
2021/06/17 00:06:07;;;;;;;18.73;4.67;;;;;;;20.67;46.51;100160.84;3525440;28;20043;-71
2021/06/17 00:07:49;;;;;;;13.20;3.90;;;;;;;20.62;46.49;100156.16;3525322;27;20043;-73
2021/06/17 00:09:29;;;;;;;;;;;;;;;20.66;46.11;100164.63;3525671;28;20043;-71
2021/06/17 00:11:10;;;;;;;16.35;4.95;;;;;;;20.59;46.52;100166.69;3524479;28;20018;-71
2021/06/17 00:12:51;;;;;;;13.82;3.92;;;;;;;20.57;46.89;100166.13;3525103;28;20040;-71
2021/06/17 00:14:33;;;;;;;11.40;4.13;;;;;;;20.55;46.80;100173.66;3525264;28;20039;-72
2021/06/17 00:16:14;;;;;;;18.15;4.93;;;;;;;20.52;47.37;100166.00;3525437;28;20050;-72
2021/06/17 00:17:55;;;;;;;18.07;5.90;;;;;;;20.53;47.34;100168.47;3525013;28;20063;-72
2021/06/17 00:19:37;;;;;;;15.20;4.13;;;;;;;20.52;47.78;100163.28;3525338;28;20086;-72
2021/06/17 00:21:17;;;;;;;19.73;5.07;;;;;;;20.52;47.66;100168.72;3525313;28;20540;-72
2021/06/17 00:22:58;;;;;;;18.25;5.07;;;;;;;20.47;48.19;100166.75;3525313;28;20047;-72
2021/06/17 00:24:39;;;;;;;19.77;5.00;;;;;;;20.46;48.00;100163.22;3524459;28;20039;-72
2021/06/17 00:26:20;;;;;;;17.20;4.90;;;;;;;20.45;48.12;100172.44;3524994;28;20617;-72
2021/06/17 00:28:01;;;;;;;31.85;5.68;;;;;;;20.43;48.61;100168.31;3525191;28;20039;-73
2021/06/17 00:29:42;;;;;;;21.90;5.60;;;;;;;20.40;48.45;100171.53;3525317;28;20405;-71
2021/06/17 00:31:22;;;;;;;21.88;5.40;;;;;;;20.39;49.15;100178.81;3525153;27;20286;-72
2021/06/17 00:33:04;;;;;;;21.57;5.80;;;;;;;20.40;49.24;100180.47;3524374;28;20545;-72
2021/06/17 00:34:44;;;;;;;21.55;5.20;;;;;;;20.41;48.85;100173.16;3524667;28;20067;-72
2021/06/17 00:36:25;;;;;;;22.23;6.23;;;;;;;20.42;49.05;100183.75;3524948;28;20048;-73
2021/06/17 00:38:06;;;;;;;22.37;5.63;;;;;;;20.39;48.83;100186.94;3524722;28;20525;-72
2021/06/17 00:39:47;;;;;;;13.93;5.03;;;;;;;20.39;49.04;100188.81;3524648;28;20513;-73
2021/06/17 00:41:27;;;;;;;20.13;5.50;;;;;;;20.33;49.12;100185.22;3525216;28;20453;-71
2021/06/17 00:43:08;;;;;;;18.93;5.47;;;;;;;20.35;49.19;100201.22;3524878;28;20474;-73
2021/06/17 00:44:49;;;;;;;19.80;5.07;;;;;;;20.29;49.43;100192.22;3524240;28;20407;-73
2021/06/17 00:46:30;;;;;;;16.38;4.78;;;;;;;20.31;49.41;100192.75;3525069;28;20039;-72
2021/06/17 00:48:13;;;;;;;19.13;4.60;;;;;;;20.32;49.52;100199.03;3524997;28;20043;-73
2021/06/17 00:49:53;;;;;;;20.80;5.45;;;;;;;20.31;49.66;100198.19;3524757;28;20044;-72
2021/06/17 00:51:34;;;;;;;14.77;4.77;;;;;;;20.31;49.74;100192.75;3524874;28;20549;-71
2021/06/17 00:53:18;;;;;;;21.42;5.63;;;;;;;20.27;49.80;100203.28;3524820;28;20130;-71
2021/06/17 00:54:59;;;;;;;12.23;4.82;;;;;;;20.28;49.87;100209.50;3524712;28;20044;-71
2021/06/17 00:56:41;;;;;;;16.17;4.57;;;;;;;20.29;49.84;100216.59;3524835;28;20051;-73
2021/06/17 00:58:22;;;;;;;11.50;4.03;;;;;;;20.28;49.87;100209.50;3523691;28;20066;-72
2021/06/17 01:00:06;;;;;;;13.80;4.60;;;;;;;20.27;49.58;100210.59;3524372;28;20517;-72
2021/06/17 01:01:46;;;;;;;16.73;5.15;;;;;;;20.27;49.82;100205.16;3524540;28;20031;-71
2021/06/17 01:03:27;;;;;;;15.90;4.43;;;;;;;20.28;49.74;100214.91;3524387;28;20047;-73
2021/06/17 01:05:14;;;;;;;14.15;5.20;;;;;;;20.27;49.98;100218.72;3524576;28;20082;-72
2021/06/17 01:06:56;;;;;;;13.48;5.00;;;;;;;20.25;49.86;100218.13;3524448;28;20032;-72
2021/06/17 01:08:46;;;;;;;;;;;;;;;20.30;49.71;100218.22;3524921;28;20039;-72
2021/06/17 01:10:52;;;;;;;19.60;4.35;;;;;;;20.23;50.12;100215.66;3523597;28;20078;-72
2021/06/17 01:12:39;;;;;;;15.35;4.72;;;;;;;20.17;50.16;100213.13;3524580;28;20055;-72
2021/06/17 01:14:26;;;;;;;16.65;4.53;;;;;;;20.15;50.44;100215.25;3524063;28;20803;-72
2021/06/17 01:16:19;;;;;;;12.43;4.90;;;;;;;20.13;50.46;100217.38;3524530;28;20175;-72
2021/06/17 01:18:13;;;;;;;11.45;4.90;;;;;;;20.12;50.21;100226.56;3524536;28;20035;-73
2021/06/17 01:20:04;;;;;;;21.05;5.00;;;;;;;20.10;50.69;100228.69;3523345;28;20533;-73
2021/06/17 01:22:11;;;;;;;15.02;5.85;;;;;;;20.05;51.23;100227.53;3524107;28;20048;-72
2021/06/17 01:24:32;;;;;;;29.45;5.68;;;;;;;20.07;51.15;100234.59;3523397;28;20054;-72
2021/06/17 01:26:20;;;;;;;18.50;5.45;;;;;;;20.00;51.44;100232.03;3522957;28;20062;-72
2021/06/17 01:28:11;;;;;;;13.07;5.63;;;;;;;20.00;51.70;100234.75;3524154;28;20092;-72
2021/06/17 01:29:56;;;;;;;15.85;5.45;;;;;;;19.99;51.87;100233.91;3523339;28;20055;-72
2021/06/17 01:31:36;;;;;;;22.70;5.82;;;;;;;19.97;51.74;100222.50;3507156;28;20049;-72
2021/06/17 01:33:18;;;;;;;21.73;5.77;;;;;;;19.96;52.08;100226.28;3521000;28;20560;-72
2021/06/17 01:34:59;;;;;;;21.83;5.13;;;;;;;19.94;51.86;100225.72;3523357;28;20172;-72
2021/06/17 01:36:47;;;;;;;19.00;6.13;;;;;;;19.94;52.03;100238.44;3519669;28;20433;-72
2021/06/17 01:38:29;;;;;;;23.40;5.72;;;;;;;19.92;52.45;100240.53;3524111;28;20210;-72
2021/06/17 01:40:10;;;;;;;22.55;6.53;;;;;;;19.90;52.28;100243.47;3524413;28;20122;-72
2021/06/17 01:41:52;;;;;;;15.38;5.50;;;;;;;19.89;52.19;100236.44;3524471;28;20077;-72
2021/06/17 01:43:34;;;;;;;16.83;5.15;;;;;;;19.90;52.36;100248.88;3524084;28;20035;-72
2021/06/17 01:45:15;;;;;;;28.88;5.80;;;;;;;19.91;52.06;100253.25;3524175;28;20178;-71
2021/06/17 01:46:56;;;;;;;13.45;5.00;;;;;;;19.92;51.84;100249.47;3523393;28;20683;-71
2021/06/17 01:48:38;;;;;;;14.45;4.55;;;;;;;19.91;52.17;100242.44;3519764;28;20065;-72
2021/06/17 01:50:20;;;;;;;17.98;5.50;;;;;;;19.94;51.82;100241.94;3523928;28;20085;-71
2021/06/17 01:52:01;;;;;;;11.98;4.47;;;;;;;19.98;51.44;100240.41;3524326;28;20042;-72
2021/06/17 01:53:41;;;;;;;14.67;5.23;;;;;;;19.98;51.55;100235.00;3523925;28;20529;-71
2021/06/17 01:55:28;;;;;;;20.07;5.00;;;;;;;20.01;51.65;100241.81;3523050;28;20039;-71
2021/06/17 01:57:09;;;;;;;21.25;5.25;;;;;;;20.01;51.61;100239.09;3523998;28;20043;-71
2021/06/17 01:58:56;;;;;;;17.00;4.57;;;;;;;20.03;51.92;100239.66;3523155;28;20127;-71
2021/06/17 02:00:41;;;;;;;9.77;4.60;;;;;;;20.04;51.32;100247.53;3524279;28;20043;-73
2021/06/17 02:02:22;;;;;;;11.70;4.20;;;;;;;20.05;51.69;100243.75;3523867;28;20050;-72
2021/06/17 02:04:03;;;;;;;13.48;4.95;;;;;;;20.10;51.49;100255.75;3524000;28;20061;-72
2021/06/17 02:05:44;;;;;;;12.55;5.53;;;;;;;20.09;51.34;100248.72;3523970;28;20086;-71
2021/06/17 02:07:25;;;;;;;14.50;4.70;;;;;;;20.14;51.61;100256.91;3523089;28;20039;-71
2021/06/17 02:09:06;;;;;;;20.20;5.50;;;;;;;20.15;51.29;100250.44;3522295;28;20043;-71
2021/06/17 02:10:47;;;;;;;20.57;4.83;;;;;;;20.19;51.34;100254.31;3541634;28;20045;-73
2021/06/17 02:12:28;;;;;;;19.90;5.07;;;;;;;20.24;51.53;100257.09;3541870;28;20059;-72
2021/06/17 02:14:11;;;;;;;;;;;;;;;20.31;51.03;100263.16;3539441;28;20047;-73
2021/06/17 02:15:52;;;;;;;14.30;4.78;;;;;;;20.31;51.21;100267.75;3532892;28;19929;-72
2021/06/17 02:17:33;;;;;;;8.75;4.82;;;;;;;20.32;51.09;100266.72;3523164;28;20069;-72
2021/06/17 02:19:16;;;;;;;14.50;4.97;;;;;;;20.38;50.95;100274.66;3523756;28;20075;-72
2021/06/17 02:20:57;;;;;;;22.02;5.00;;;;;;;20.45;50.86;100277.22;3523976;28;20046;-72
2021/06/17 02:22:42;;;;;;;7.47;4.07;;;;;;;20.56;50.59;100280.94;3524091;28;20040;-72
2021/06/17 02:24:30;;;;;;;15.13;4.18;;;;;;;20.68;49.70;100278.97;3522104;28;20617;-71
2021/06/17 02:26:12;;;;;;;19.75;3.97;;;;;;;20.77;49.21;100282.91;3521297;28;20050;-72
2021/06/17 02:27:59;;;;;;;5.43;3.50;;;;;;;20.82;48.40;100274.03;3510596;28;20040;-72
2021/06/17 02:29:48;;;;;;;8.85;5.10;;;;;;;20.83;48.09;100272.94;3518841;28;20502;-71
2021/06/17 02:31:31;;;;;;;9.43;5.72;;;;;;;20.83;48.04;100281.06;3518570;28;20031;-71
2021/06/17 02:33:13;;;;;;;4.85;3.55;;;;;;;20.82;47.64;100280.25;3519919;28;20048;-71
2021/06/17 02:34:54;;;;;;;6.38;3.97;;;;;;;20.82;47.77;100277.56;3518162;28;20046;-71
2021/06/17 02:36:36;;;;;;;8.77;3.13;;;;;;;20.86;47.80;100281.41;3522943;28;20043;-71
2021/06/17 02:38:21;;;;;;;10.95;4.05;;;;;;;20.89;47.35;100277.41;3521584;28;20036;-71
2021/06/17 02:40:04;;;;;;;7.47;3.22;;;;;;;20.92;47.38;100277.72;3521822;28;20039;-71
2021/06/17 02:41:49;;;;;;;8.10;2.85;;;;;;;20.96;47.14;100279.91;3509456;28;20585;-72
2021/06/17 02:43:33;;;;;;;7.00;3.40;;;;;;;20.96;46.61;100280.75;3511519;28;20047;-71
2021/06/17 02:45:15;;;;;;;11.43;5.35;;;;;;;21.00;46.72;100283.78;3508851;28;20075;-71
2021/06/17 02:46:56;;;;;;;9.05;4.55;;;;;;;21.01;46.83;100283.50;3522781;28;20059;-72
2021/06/17 02:48:37;;;;;;;7.73;4.10;;;;;;;21.04;46.86;100282.19;3525295;28;20051;-72
2021/06/17 02:50:18;;;;;;;5.87;3.73;;;;;;;21.06;46.30;100290.91;3526438;28;20410;-72
2021/06/17 02:51:59;;;;;;;6.35;3.28;;;;;;;21.06;46.30;100280.06;3525470;28;20040;-71
2021/06/17 02:53:40;;;;;;;9.93;3.20;;;;;;;21.08;45.98;100286.06;3524963;28;20043;-72
2021/06/17 02:55:20;;;;;;;10.15;3.20;;;;;;;21.08;46.31;100286.06;3520577;28;20537;-72
2021/06/17 02:57:07;;;;;;;5.63;2.60;;;;;;;21.10;46.18;100284.75;3525221;28;20130;-73
2021/06/17 02:58:48;;;;;;;5.90;2.92;;;;;;;21.12;45.99;100290.75;3525009;28;20443;-72
2021/06/17 03:00:30;;;;;;;5.03;3.13;;;;;;;21.15;46.24;100288.59;3525802;28;20073;-73
2021/06/17 03:02:17;;;;;;;5.18;2.72;;;;;;;21.17;46.25;100289.16;3525326;28;20533;-72
2021/06/17 03:04:05;;;;;;;7.82;3.05;;;;;;;21.16;45.92;100290.25;3519418;28;20048;-71
2021/06/17 03:06:13;;;;;;;6.90;4.10;;;;;;;21.21;45.89;100293.84;3523374;28;20063;-71
2021/06/17 03:08:00;;;;;;;6.60;3.15;;;;;;;21.21;45.62;100295.72;3511198;28;20078;-73
2021/06/17 03:09:45;;;;;;;6.88;3.03;;;;;;;21.21;45.37;100293.03;3508706;28;20487;-73
2021/06/17 03:11:30;;;;;;;9.23;3.65;;;;;;;21.20;45.57;100291.38;3522753;28;20092;-71
2021/06/17 03:13:12;;;;;;;9.18;3.28;;;;;;;21.21;45.71;100293.03;3524429;28;20043;-71
2021/06/17 03:14:55;;;;;;;;;;;;;;;21.29;45.54;100293.41;3525147;28;20391;-71
2021/06/17 03:16:36;;;;;;;;;;;;;;;21.31;45.50;100293.16;3512419;28;19975;-71
2021/06/17 03:18:17;;;;;;;5.55;3.20;;;;;;;21.27;45.71;100294.72;3512585;28;20375;-71
2021/06/17 03:20:01;;;;;;;11.60;3.47;;;;;;;21.27;45.60;100298.28;3510871;28;20418;-71
2021/06/17 03:21:45;;;;;;;7.05;4.38;;;;;;;21.30;45.30;100299.66;3520238;28;20039;-71
2021/06/17 03:23:27;;;;;;;9.23;4.57;;;;;;;21.32;45.52;100306.47;3521804;28;20501;-71
2021/06/17 03:25:13;;;;;;;7.85;3.92;;;;;;;21.36;45.23;100306.78;3521560;28;20036;-72
2021/06/17 03:26:56;;;;;;;4.95;3.47;;;;;;;21.39;45.08;100310.91;3513117;28;20039;-72
2021/06/17 03:28:39;;;;;;;6.97;3.05;;;;;;;21.44;44.97;100314.50;3511807;28;20032;-72
2021/06/17 03:30:21;;;;;;;6.28;3.97;;;;;;;21.47;45.33;100313.19;3525058;28;20044;-70
2021/06/17 03:32:03;;;;;;;12.18;3.67;;;;;;;21.52;45.10;100310.56;3524947;28;20413;-70
2021/06/17 03:33:44;;;;;;;;;;;;;;;21.62;44.86;100321.53;3517864;28;20044;-70
2021/06/17 03:35:28;;;;;;;9.38;2.72;;;;;;;21.60;45.09;100320.13;3507865;28;19920;-70
2021/06/17 03:37:10;;;;;;;12.07;3.28;;;;;;;21.64;44.95;100324.00;3522534;28;20039;-70
2021/06/17 03:38:52;;;;;;;7.63;3.25;;;;;;;21.65;44.75;100323.72;3522187;28;20063;-70
2021/06/17 03:40:33;;;;;;;5.63;2.58;;;;;;;21.69;44.96;100327.59;3522317;28;20053;-70
2021/06/17 03:42:15;;;;;;;9.13;3.42;;;;;;;21.73;44.63;100328.72;3522076;28;20498;-70
2021/06/17 03:43:56;;;;;;;8.60;3.20;;;;;;;21.75;44.98;100323.84;3511998;28;20143;-71
2021/06/17 03:45:38;;;;;;;13.30;3.60;;;;;;;21.80;44.88;100327.72;3525432;28;20036;-70
2021/06/17 03:47:23;;;;;;;11.60;3.70;;;;;;;21.83;44.86;100321.78;3524665;28;20581;-71
2021/06/17 03:49:06;;;;;;;14.77;3.25;;;;;;;21.85;44.42;100322.34;3524485;28;20051;-71
2021/06/17 03:50:48;;;;;;;8.50;3.28;;;;;;;21.87;44.51;100323.75;3521375;28;20035;-70
2021/06/17 03:52:29;;;;;;;10.27;3.13;;;;;;;21.89;44.28;100327.03;3521812;28;20529;-70
2021/06/17 03:54:09;;;;;;;7.60;3.20;;;;;;;21.96;44.38;100321.38;3519981;28;20088;-71
2021/06/17 03:55:52;;;;;;;10.97;3.37;;;;;;;21.98;43.96;100330.09;3514744;28;20040;-71
2021/06/17 03:57:33;;;;;;;8.60;2.80;;;;;;;22.00;44.17;100333.38;3510739;28;20032;-72
2021/06/17 03:59:14;;;;;;;5.17;2.37;;;;;;;22.05;44.13;100330.72;3521900;28;20051;-71
2021/06/17 04:00:56;;;;;;;6.70;2.70;;;;;;;22.09;44.03;100337.28;3523236;28;20127;-72
2021/06/17 04:02:37;;;;;;;8.82;3.40;;;;;;;22.15;44.16;100330.84;3520096;28;20039;-70
2021/06/17 04:04:18;;;;;;;6.10;2.47;;;;;;;22.23;44.69;100334.19;3515752;28;20043;-71
2021/06/17 04:05:59;;;;;;;8.23;2.67;;;;;;;22.26;44.27;100330.97;3521632;28;20040;-70
2021/06/17 04:07:42;;;;;;;4.20;2.20;;;;;;;22.28;43.92;100336.94;3524398;28;20556;-71
2021/06/17 04:09:28;;;;;;;10.13;2.20;;;;;;;22.27;43.70;100333.41;3521503;28;20107;-73
2021/06/17 04:11:09;;;;;;;5.65;2.25;;;;;;;22.32;44.43;100341.63;3522372;28;20514;-73
2021/06/17 04:12:51;;;;;;;5.57;1.80;;;;;;;22.36;44.17;100344.66;3506125;28;20064;-72
2021/06/17 04:14:34;;;;;;;3.97;1.95;;;;;;;22.43;44.67;100345.25;3510317;28;20027;-73
2021/06/17 04:16:26;;;;;;;5.72;2.58;;;;;;;22.55;44.90;100340.47;3515489;28;20047;-72
2021/06/17 04:18:08;;;;;;;7.05;2.47;;;;;;;22.60;44.52;100340.53;3518438;28;20468;-72
2021/06/17 04:19:50;;;;;;;6.18;2.05;;;;;;;22.67;44.01;100353.09;3495526;28;20499;-70
2021/06/17 04:21:31;;;;;;;6.88;2.47;;;;;;;22.73;43.97;100352.06;3519084;28;20035;-71
2021/06/17 04:23:17;;;;;;;5.93;3.10;;;;;;;22.78;43.67;100362.97;3498437;28;20051;-72
2021/06/17 04:25:03;;;;;;;5.88;3.25;;;;;;;22.81;43.68;100365.16;3495885;28;20127;-70
2021/06/17 04:26:45;;;;;;;6.50;2.20;;;;;;;22.84;44.14;100361.91;3506422;28;20044;-70
2021/06/17 04:28:29;;;;;;;10.70;2.63;;;;;;;22.92;44.27;100355.19;3518409;28;20035;-70
2021/06/17 04:30:10;;;;;;;6.32;2.42;;;;;;;22.97;44.12;100366.94;3523928;28;20042;-71
2021/06/17 04:31:53;;;;;;;8.02;2.22;;;;;;;23.01;43.85;100365.38;3521009;28;20517;-71
2021/06/17 04:33:34;;;;;;;3.35;1.83;;;;;;;23.04;43.78;100359.41;3519846;28;20088;-72
2021/06/17 04:35:17;;;;;;;4.65;2.00;;;;;;;23.08;44.33;100359.72;3496107;28;20135;-71
2021/06/17 04:36:58;;;;;;;15.20;2.40;;;;;;;23.10;44.56;100357.53;3509939;28;20063;-71
2021/06/17 04:38:39;;;;;;;7.73;1.70;;;;;;;23.14;44.68;100357.84;3524798;28;20036;-72
2021/06/17 04:40:21;;;;;;;7.90;2.00;;;;;;;23.22;44.83;100362.78;3509094;28;20141;-72
2021/06/17 04:42:03;;;;;;;6.82;1.85;;;;;;;23.26;44.45;100361.19;3518970;28;20380;-72
2021/06/17 04:43:44;;;;;;;8.00;2.15;;;;;;;23.29;44.27;100364.19;3509422;28;20092;-73
2021/06/17 04:45:27;;;;;;;3.55;1.60;;;;;;;23.29;43.72;100361.47;3504962;28;20511;-73
2021/06/17 04:47:09;;;;;;;7.32;2.30;;;;;;;23.30;43.90;100365.00;3513532;28;20039;-72
2021/06/17 04:48:51;;;;;;;4.97;1.88;;;;;;;23.26;43.45;100367.44;3524044;28;20047;-70
2021/06/17 04:50:31;;;;;;;3.55;2.03;;;;;;;23.29;44.67;100366.09;3524819;28;20051;-73
2021/06/17 04:52:26;;;;;;;6.20;2.50;;;;;;;23.33;45.55;100377.28;3524354;28;20036;-72
2021/06/17 04:54:08;;;;;;;5.75;2.17;;;;;;;23.39;45.02;100377.06;3515765;28;20119;-72
2021/06/17 04:55:52;;;;;;;8.23;2.17;;;;;;;23.43;45.52;100378.16;3514101;28;20046;-71
2021/06/17 04:57:33;;;;;;;11.65;2.55;;;;;;;23.43;44.97;100375.44;3524923;28;20401;-70
2021/06/17 04:59:14;;;;;;;9.50;2.60;;;;;;;23.50;45.00;100383.38;3524705;28;20088;-71
2021/06/17 05:00:55;;;;;;;7.53;2.45;;;;;;;23.53;44.72;100380.13;3518279;28;20047;-71
2021/06/17 05:02:36;;;;;;;8.13;2.70;;;;;;;23.57;47.40;100381.25;3511670;28;20502;-72
2021/06/17 05:04:17;;;;;;;10.07;2.60;;;;;;;23.66;48.60;100387.00;3515614;28;20036;-70
2021/06/17 05:05:59;;;;;;;4.35;2.40;;;;;;;23.79;51.27;100391.16;3522147;28;20073;-73
2021/06/17 05:11:25;;;;;;;8.45;2.10;;;;;;;24.13;50.21;100391.56;3521105;28;20387;-75
2021/06/17 05:13:06;;;;;;;5.95;2.53;;;;;;;24.21;50.27;100390.22;3520318;28;20039;-76
2021/06/17 05:14:47;;;;;;;6.10;1.90;;;;;;;24.27;48.83;100395.44;3524013;28;20519;-77
2021/06/17 05:16:27;;;;;;;4.97;2.03;;;;;;;24.24;49.30;100371.47;3513920;28;20043;-78
2021/06/17 05:18:08;;;;;;;7.67;2.17;;;;;;;24.44;48.70;100395.19;3510344;28;20072;-77
2021/06/17 05:19:49;;;;;;;3.90;2.77;;;;;;;24.53;48.21;100395.53;3523974;28;20134;-75
2021/06/17 05:21:30;;;;;;;8.67;1.93;;;;;;;24.58;47.93;100399.09;3524937;28;20046;-73
2021/06/17 05:23:18;;;;;;;5.72;2.00;;;;;;;24.64;46.63;100396.38;3522078;28;20122;-73
2021/06/17 05:24:59;;;;;;;6.03;2.17;;;;;;;24.68;45.57;100403.75;3524528;28;20139;-77
2021/06/17 05:26:40;;;;;;;7.20;2.00;;;;;;;24.73;44.62;100401.00;3522534;28;20035;-75
2021/06/17 05:28:24;;;;;;;5.03;1.97;;;;;;;24.76;44.86;100395.00;3523344;28;20028;-75
2021/06/17 05:30:06;;;;;;;4.55;1.65;;;;;;;24.78;44.88;100398.28;3520665;28;20055;-76
2021/06/17 05:31:47;;;;;;;6.50;2.20;;;;;;;24.85;44.53;100405.38;3517082;28;20035;-76
2021/06/17 05:33:30;;;;;;;6.00;2.00;;;;;;;24.87;43.93;100395.84;3521982;28;20105;-72
2021/06/17 05:35:12;;;;;;;3.75;1.30;;;;;;;24.94;44.06;100401.03;3510671;28;20102;-78
2021/06/17 05:36:53;;;;;;;3.33;1.40;;;;;;;24.95;43.36;100408.09;3510683;28;20040;-78
2021/06/17 05:38:34;;;;;;;6.03;1.73;;;;;;;24.98;42.86;100402.91;3514156;28;20039;-77
2021/06/17 05:40:15;;;;;;;10.25;2.08;;;;;;;25.02;43.14;100397.75;3518251;28;20071;-78
2021/06/17 05:41:55;;;;;;;5.33;2.03;;;;;;;25.10;42.87;100405.38;3510140;28;20036;-76
2021/06/17 05:43:36;;;;;;;5.40;1.30;;;;;;;25.15;42.37;100408.09;3511947;28;20590;-77
2021/06/17 05:45:17;;;;;;;11.02;3.67;;;;;;;25.19;42.02;100408.41;3502509;28;20057;-76
2021/06/17 05:46:58;;;;;;;8.43;2.60;;;;;;;25.22;42.07;100405.97;3510335;28;20052;-76
2021/06/17 05:48:40;;;;;;;5.45;1.80;;;;;;;25.28;41.66;100412.22;3524238;28;20498;-79
2021/06/17 05:50:21;;;;;;;2.47;1.77;;;;;;;25.32;41.21;100412.47;3516154;28;20501;-78
2021/06/17 05:52:02;;;;;;;3.53;1.60;;;;;;;25.36;40.78;100408.13;3514070;28;20036;-77
2021/06/17 05:53:45;;;;;;;5.60;1.80;;;;;;;25.38;40.26;100405.94;3522717;28;20039;-76
2021/06/17 05:55:26;;;;;;;4.75;1.40;;;;;;;25.39;39.70;100408.38;3510849;28;20653;-78
2021/06/17 05:57:10;;;;;;;5.38;1.67;;;;;;;25.41;38.96;100417.09;3510711;28;20135;-77
2021/06/17 05:58:51;;;;;;;2.45;1.40;;;;;;;25.42;39.45;100416.00;3510165;28;20032;-76
2021/06/17 06:00:32;;;;;;;5.47;1.60;;;;;;;25.44;39.33;100415.75;3512093;28;20513;-78
2021/06/17 06:02:14;;;;;;;5.30;1.70;;;;;;;25.52;39.12;100412.44;3537108;27;20075;-79
2021/06/17 06:03:54;;;;;;;5.28;1.73;;;;;;;25.56;38.77;100423.66;3523980;28;20028;-77
2021/06/17 06:05:35;;;;;;;9.37;1.77;;;;;;;25.59;38.75;100423.91;3497609;28;20315;-78
2021/06/17 06:07:16;;;;;;;6.93;1.90;;;;;;;25.64;38.23;100425.81;3515815;28;20040;-76
2021/06/17 06:08:57;;;;;;;4.53;1.45;;;;;;;25.70;38.44;100426.59;3522815;28;20040;-77
2021/06/17 06:10:39;;;;;;;22.90;1.93;;;;;;;25.72;38.05;100422.50;3519309;28;20154;-78
2021/06/17 06:12:20;;;;;;;8.13;2.17;;;;;;;25.75;37.79;100432.06;3524134;28;20043;-79
2021/06/17 06:14:01;;;;;;;11.23;2.20;;;;;;;25.74;37.31;100420.31;3521110;28;20040;-80
2021/06/17 06:15:41;;;;;;;8.77;2.03;;;;;;;25.78;36.85;100426.03;3511911;28;20036;-78
2021/06/17 06:17:22;;;;;;;6.43;1.93;;;;;;;25.79;36.98;100427.66;3511002;28;20292;-79
2021/06/17 06:19:06;;;;;;;6.70;1.88;;;;;;;25.80;36.70;100424.66;3518710;28;20506;-78
2021/06/17 06:20:47;;;;;;;10.02;2.08;;;;;;;25.82;36.39;100427.13;3522996;28;20039;-78
2021/06/17 06:22:28;;;;;;;5.07;1.52;;;;;;;25.85;36.42;100432.06;3525325;28;20050;-77
2021/06/17 06:24:08;;;;;;;3.83;1.43;;;;;;;25.92;36.39;100439.94;3523894;28;20051;-77
2021/06/17 06:25:50;;;;;;;3.30;1.60;;;;;;;25.95;36.58;100432.03;3527031;28;20057;-77
2021/06/17 06:27:31;;;;;;;2.35;1.40;;;;;;;26.03;36.12;100428.72;3527481;27;20051;-77
2021/06/17 06:29:11;;;;;;;13.53;1.40;;;;;;;26.10;35.61;100434.69;3526132;28;20402;-75
2021/06/17 06:30:53;;;;;;;5.53;1.10;;;;;;;26.19;35.73;100436.84;3517182;28;20036;-77
2021/06/17 06:32:34;;;;;;;10.73;1.20;;;;;;;26.30;35.74;100432.94;3509665;28;20133;-75
2021/06/17 06:34:15;;;;;;;8.90;1.93;;;;;;;26.38;35.71;100429.63;3514432;28;20039;-78
2021/06/17 06:35:55;;;;;;;6.97;1.60;;;;;;;26.48;35.71;100431.50;3539718;27;20705;-77
2021/06/17 06:37:37;;;;;;;4.87;2.20;;;;;;;26.58;35.33;100426.00;3529694;27;20059;-79
2021/06/17 06:39:18;;;;;;;;;;;;;;;26.75;35.31;100439.28;3522693;28;20032;-77
2021/06/17 06:40:59;;;;;;;5.07;1.70;;;;;;;26.79;35.45;100443.06;3527387;28;19919;-79
2021/06/17 06:42:40;;;;;;;2.92;1.98;;;;;;;26.89;34.87;100429.31;3529862;28;20046;-78
2021/06/17 06:44:22;;;;;;;3.77;1.50;;;;;;;27.02;35.25;100429.78;3527413;28;20043;-77
2021/06/17 06:46:03;;;;;;;6.72;1.35;;;;;;;27.10;35.12;100440.09;3529579;28;20518;-77
2021/06/17 06:47:44;;;;;;;3.08;0.93;;;;;;;27.13;34.70;100434.91;3528836;28;20505;-77
2021/06/17 06:49:25;;;;;;;4.77;1.40;;;;;;;27.19;34.07;100438.44;3523002;28;20040;-76
2021/06/17 06:51:06;;;;;;;3.78;1.48;;;;;;;27.23;34.09;100430.47;3525907;28;20066;-78
2021/06/17 06:52:47;;;;;;;5.67;1.20;;;;;;;27.32;34.10;100447.91;3526767;27;20336;-77
2021/06/17 06:54:29;;;;;;;4.47;0.95;;;;;;;27.39;33.88;100442.88;3534492;28;20032;-76
2021/06/17 06:56:09;;;;;;;;;;;;;;;27.52;33.81;100452.34;3543397;28;20108;-75
2021/06/17 06:57:51;;;;;;;3.58;1.02;;;;;;;27.50;33.42;100449.09;3544132;28;19999;-76
2021/06/17 06:59:31;;;;;;;3.45;0.88;;;;;;;27.55;33.76;100447.13;3542223;28;20024;-77
2021/06/17 07:01:12;;;;;;;5.67;1.97;;;;;;;27.61;33.33;100451.44;3536524;28;20031;-77
2021/06/17 07:02:53;;;;;;;4.63;1.17;;;;;;;27.68;33.28;100456.59;3528486;28;20046;-76
2021/06/17 07:04:34;;;;;;;4.97;2.53;;;;;;;27.73;32.90;100451.06;3526950;28;20107;-77
2021/06/17 07:06:17;;;;;;;2.10;1.23;;;;;;;27.78;33.10;100452.94;3526228;28;20074;-75
2021/06/17 07:07:57;;;;;;;3.42;1.70;;;;;;;27.83;32.95;100453.72;3525683;28;20039;-77
2021/06/17 07:09:38;;;;;;;4.83;1.57;;;;;;;27.88;32.73;100454.75;3526417;28;20130;-77
2021/06/17 07:11:19;;;;;;;2.58;1.30;;;;;;;27.91;32.61;100459.66;3522907;28;20036;-77
2021/06/17 07:13:00;;;;;;;2.08;1.20;;;;;;;27.97;32.46;100466.72;3514859;28;20459;-76
2021/06/17 07:14:41;;;;;;;3.73;1.10;;;;;;;28.01;32.65;100465.00;3526063;28;20066;-76
2021/06/17 07:16:21;;;;;;;3.87;1.13;;;;;;;28.04;32.29;100462.50;3526291;28;20067;-76
2021/06/17 07:18:02;;;;;;;4.37;0.93;;;;;;;28.09;32.71;100472.59;3525933;28;20418;-76
2021/06/17 07:19:43;;;;;;;4.35;1.00;;;;;;;28.10;31.99;100468.75;3508616;28;20138;-76
2021/06/17 07:21:24;;;;;;;3.38;1.23;;;;;;;28.11;32.14;100464.06;3523792;28;20039;-76
2021/06/17 07:23:05;;;;;;;4.73;2.20;;;;;;;28.16;31.92;100462.06;3526800;27;20040;-76
2021/06/17 07:24:46;;;;;;;2.63;1.38;;;;;;;28.24;31.90;100464.19;3525455;28;20376;-77
2021/06/17 07:26:27;;;;;;;3.93;1.47;;;;;;;28.26;32.00;100458.41;3526262;28;20044;-79
2021/06/17 07:28:08;;;;;;;1.40;1.30;;;;;;;28.34;32.06;100465.97;3526855;28;20036;-77
2021/06/17 07:29:51;;;;;;;3.60;1.10;;;;;;;28.43;31.51;100468.88;3526196;28;20042;-77
2021/06/17 07:31:32;;;;;;;5.72;1.00;;;;;;;28.48;31.80;100479.81;3525131;28;20297;-77
2021/06/17 07:33:13;;;;;;;2.97;1.42;;;;;;;28.54;31.53;100466.84;3526512;28;20075;-76
2021/06/17 07:34:53;;;;;;;0.80;0.80;;;;;;;28.63;31.82;100470.53;3524861;28;20027;-78
2021/06/17 07:36:34;;;;;;;2.77;1.20;;;;;;;28.65;31.27;100473.81;3526769;28;20043;-77
2021/06/17 07:38:16;;;;;;;3.20;1.40;;;;;;;28.66;31.60;100472.72;3525861;28;20134;-76
2021/06/17 07:39:57;;;;;;;6.38;1.25;;;;;;;28.71;31.20;100475.38;3526684;28;20039;-77
2021/06/17 07:41:38;;;;;;;6.30;1.30;;;;;;;28.81;30.81;100475.22;3524690;28;20035;-80
2021/06/17 07:43:19;;;;;;;1.73;1.00;;;;;;;28.92;30.54;100481.38;3522530;28;20063;-79
2021/06/17 07:44:59;;;;;;;5.23;1.87;;;;;;;29.01;31.12;100479.56;3526762;28;20107;-79
2021/06/17 07:46:40;;;;;;;3.75;1.20;;;;;;;29.08;30.87;100471.81;3525546;28;20407;-77
2021/06/17 07:48:21;;;;;;;5.13;1.00;;;;;;;29.14;31.01;100480.78;3526257;28;20110;-77
2021/06/17 07:50:04;;;;;;;15.27;9.82;;;;;;;29.20;30.46;100476.00;3525369;28;20641;-77
2021/06/17 07:51:46;;;;;;;3.67;2.33;;;;;;;29.25;30.53;100481.41;3524913;28;20070;-78
2021/06/17 07:53:27;;;;;;;1.77;1.13;;;;;;;29.31;30.69;100480.22;3525798;28;20047;-77
2021/06/17 07:55:09;;;;;;;8.23;1.30;;;;;;;29.34;30.76;100482.38;3526435;28;20089;-77
2021/06/17 07:56:50;;;;;;;8.45;1.60;;;;;;;29.36;30.30;100482.88;3525748;28;20491;-77
2021/06/17 07:58:31;;;;;;;5.53;1.33;;;;;;;29.40;30.24;100486.66;3521220;28;20035;-78
2021/06/17 08:00:12;;;;;;;6.78;1.60;;;;;;;29.47;30.27;100489.81;3508191;28;20040;-77